sensor_id;sensor_type;location;lat;lon;timestamp;pressure;altitude;pressure_sealevel;temperature;humidity
15477;BME280;7840;42.702;23.296;2024-01-30T00:01:29;97048.53;;;-0.02;100.00
15477;BME280;7840;42.702;23.296;2024-01-30T00:03:57;97050.53;;;-0.15;100.00
15477;BME280;7840;42.702;23.296;2024-01-30T00:06:38;97052.06;;;-0.13;100.00
15477;BME280;7840;42.702;23.296;2024-01-30T00:09:59;97053.34;;;0.03;100.00
15477;BME280;7840;42.702;23.296;2024-01-30T00:12:29;97048.50;;;-0.12;100.00
15477;BME280;7840;42.702;23.296;2024-01-30T00:14:58;97048.22;;;-0.09;100.00
15477;BME280;7840;42.702;23.296;2024-01-30T00:17:25;97051.66;;;-0.08;100.00
15477;BME280;7840;42.702;23.296;2024-01-30T00:35:22;97046.69;;;-0.51;100.00
15477;BME280;7840;42.702;23.296;2024-01-30T00:37:58;97048.47;;;-0.52;100.00
15477;BME280;7840;42.702;23.296;2024-01-30T00:40:28;97047.78;;;-0.54;100.00
15477;BME280;7840;42.702;23.296;2024-01-30T00:42:55;97046.72;;;-0.42;100.00
15477;BME280;7840;42.702;23.296;2024-01-30T00:45:23;97038.28;;;-0.55;100.00
15477;BME280;7840;42.702;23.296;2024-01-30T00:47:51;97044.53;;;-0.46;100.00
15477;BME280;7840;42.702;23.296;2024-01-30T00:50:18;97034.66;;;-0.43;100.00
15477;BME280;7840;42.702;23.296;2024-01-30T00:55:36;97037.91;;;-0.50;100.00
15477;BME280;7840;42.702;23.296;2024-01-30T00:58:04;97043.19;;;-0.41;100.00
15477;BME280;7840;42.702;23.296;2024-01-30T01:00:32;97039.03;;;-0.43;100.00
15477;BME280;7840;42.702;23.296;2024-01-30T01:24:01;97049.00;;;-0.48;100.00
15477;BME280;7840;42.702;23.296;2024-01-30T01:26:28;97046.16;;;-0.45;100.00
15477;BME280;7840;42.702;23.296;2024-01-30T01:29:06;97044.75;;;-0.49;100.00
15477;BME280;7840;42.702;23.296;2024-01-30T01:31:37;97042.16;;;-0.49;100.00
15477;BME280;7840;42.702;23.296;2024-01-30T01:34:09;97044.25;;;-0.43;100.00
15477;BME280;7840;42.702;23.296;2024-01-30T01:36:37;97047.25;;;-0.48;100.00
15477;BME280;7840;42.702;23.296;2024-01-30T01:39:06;97047.47;;;-0.61;100.00
15477;BME280;7840;42.702;23.296;2024-01-30T01:41:34;97049.94;;;-0.59;100.00
15477;BME280;7840;42.702;23.296;2024-01-30T01:44:19;97054.31;;;-0.60;100.00
15477;BME280;7840;42.702;23.296;2024-01-30T01:46:48;97048.00;;;-0.57;100.00
15477;BME280;7840;42.702;23.296;2024-01-30T01:49:16;97047.69;;;-0.64;100.00
15477;BME280;7840;42.702;23.296;2024-01-30T01:57:10;97052.16;;;-0.54;100.00
15477;BME280;7840;42.702;23.296;2024-01-30T01:59:37;97051.25;;;-0.65;100.00
15477;BME280;7840;42.702;23.296;2024-01-30T02:02:06;97068.50;;;-0.64;100.00
15477;BME280;7840;42.702;23.296;2024-01-30T02:04:38;97061.94;;;-0.68;100.00
15477;BME280;7840;42.702;23.296;2024-01-30T02:07:06;97060.25;;;-0.69;100.00
15477;BME280;7840;42.702;23.296;2024-01-30T02:09:33;97051.53;;;-0.68;100.00
15477;BME280;7840;42.702;23.296;2024-01-30T02:12:01;97060.25;;;-0.69;100.00
15477;BME280;7840;42.702;23.296;2024-01-30T02:14:31;97063.81;;;-0.70;100.00
15477;BME280;7840;42.702;23.296;2024-01-30T02:19:41;97060.34;;;-0.59;100.00
15477;BME280;7840;42.702;23.296;2024-01-30T02:25:04;97056.13;;;-0.50;100.00
15477;BME280;7840;42.702;23.296;2024-01-30T02:27:34;97054.09;;;-0.47;100.00
15477;BME280;7840;42.702;23.296;2024-01-30T02:30:02;97046.81;;;-0.53;100.00
15477;BME280;7840;42.702;23.296;2024-01-30T02:32:30;97053.28;;;-0.47;100.00
15477;BME280;7840;42.702;23.296;2024-01-30T02:34:57;97046.16;;;-0.45;100.00
15477;BME280;7840;42.702;23.296;2024-01-30T02:37:25;97051.69;;;-0.39;100.00
15477;BME280;7840;42.702;23.296;2024-01-30T02:39:53;97044.84;;;-0.30;100.00
15477;BME280;7840;42.702;23.296;2024-01-30T02:42:25;97055.03;;;-0.27;100.00
15477;BME280;7840;42.702;23.296;2024-01-30T02:45:12;97057.53;;;-0.16;98.21
15477;BME280;7840;42.702;23.296;2024-01-30T02:47:40;97054.25;;;-0.18;98.51
15477;BME280;7840;42.702;23.296;2024-01-30T02:50:09;97054.25;;;-0.18;97.66
15477;BME280;7840;42.702;23.296;2024-01-30T02:55:43;97039.75;;;-0.11;96.15
15477;BME280;7840;42.702;23.296;2024-01-30T02:58:13;97055.66;;;-0.04;95.44
15477;BME280;7840;42.702;23.296;2024-01-30T03:00:41;97051.56;;;-0.07;97.45
15477;BME280;7840;42.702;23.296;2024-01-30T03:03:08;97057.28;;;-0.13;96.99
15477;BME280;7840;42.702;23.296;2024-01-30T03:05:36;97049.47;;;-0.13;96.49
15477;BME280;7840;42.702;23.296;2024-01-30T03:08:09;97053.44;;;-0.09;95.92
15477;BME280;7840;42.702;23.296;2024-01-30T03:10:36;97045.84;;;-0.21;97.21
15477;BME280;7840;42.702;23.296;2024-01-30T03:16:05;97041.06;;;-0.16;95.71
15477;BME280;7840;42.702;23.296;2024-01-30T03:18:39;97044.38;;;-0.14;94.95
15477;BME280;7840;42.702;23.296;2024-01-30T03:21:07;97046.03;;;-0.13;94.15
15477;BME280;7840;42.702;23.296;2024-01-30T03:23:35;97043.81;;;-0.18;94.23
15477;BME280;7840;42.702;23.296;2024-01-30T03:26:17;97043.81;;;-0.18;94.62
15477;BME280;7840;42.702;23.296;2024-01-30T03:28:46;97045.97;;;-0.23;93.80
15477;BME280;7840;42.702;23.296;2024-01-30T03:34:00;97036.38;;;-0.32;93.67
15477;BME280;7840;42.702;23.296;2024-01-30T03:36:28;97033.91;;;-0.34;94.95
15477;BME280;7840;42.702;23.296;2024-01-30T03:38:59;97031.16;;;-0.32;94.54
15477;BME280;7840;42.702;23.296;2024-01-30T03:41:26;97041.56;;;-0.32;93.99
15477;BME280;7840;42.702;23.296;2024-01-30T03:44:16;97036.38;;;-0.32;93.06
15477;BME280;7840;42.702;23.296;2024-01-30T03:46:45;97037.03;;;-0.30;92.76
15477;BME280;7840;42.702;23.296;2024-01-30T03:49:13;97032.63;;;-0.39;92.94
15477;BME280;7840;42.702;23.296;2024-01-30T03:51:40;97034.66;;;-0.43;92.02
15477;BME280;7840;42.702;23.296;2024-01-30T03:57:00;97034.59;;;-0.32;91.69
15477;BME280;7840;42.702;23.296;2024-01-30T03:59:29;97026.72;;;-0.41;91.50
15477;BME280;7840;42.702;23.296;2024-01-30T04:02:12;97028.38;;;-0.40;91.42
15477;BME280;7840;42.702;23.296;2024-01-30T04:04:39;97024.25;;;-0.43;90.98
15477;BME280;7840;42.702;23.296;2024-01-30T04:07:19;97025.25;;;-0.34;90.55
15477;BME280;7840;42.702;23.296;2024-01-30T04:10:02;97026.19;;;-0.35;90.76
15477;BME280;7840;42.702;23.296;2024-01-30T04:15:44;97021.91;;;-0.46;92.11
15477;BME280;7840;42.702;23.296;2024-01-30T04:18:32;97028.28;;;-0.60;92.40
15477;BME280;7840;42.702;23.296;2024-01-30T04:21:13;97027.47;;;-0.60;93.69
15477;BME280;7840;42.702;23.296;2024-01-30T04:23:42;97025.50;;;-0.68;94.10
15477;BME280;7840;42.702;23.296;2024-01-30T04:29:28;97028.63;;;-0.74;94.62
15477;BME280;7840;42.702;23.296;2024-01-30T04:31:58;97037.03;;;-0.61;93.71
15477;BME280;7840;42.702;23.296;2024-01-30T04:34:42;97035.41;;;-0.62;93.08
15477;BME280;7840;42.702;23.296;2024-01-30T04:37:10;97036.41;;;-0.74;93.59
15477;BME280;7840;42.702;23.296;2024-01-30T04:39:38;97037.09;;;-0.72;94.98
15477;BME280;7840;42.702;23.296;2024-01-30T04:45:05;97037.78;;;-0.70;94.86
15477;BME280;7840;42.702;23.296;2024-01-30T04:47:58;97049.47;;;-0.85;97.17
15477;BME280;7840;42.702;23.296;2024-01-30T04:50:40;97048.59;;;-0.95;97.94
15477;BME280;7840;42.702;23.296;2024-01-30T04:53:31;97055.69;;;-0.97;98.81
15477;BME280;7840;42.702;23.296;2024-01-30T04:56:18;97061.53;;;-0.84;98.30
15477;BME280;7840;42.702;23.296;2024-01-30T04:58:48;97069.41;;;-0.95;99.72
15477;BME280;7840;42.702;23.296;2024-01-30T05:01:16;97062.25;;;-0.82;99.12
15477;BME280;7840;42.702;23.296;2024-01-30T05:03:45;97063.19;;;-0.83;98.88
15477;BME280;7840;42.702;23.296;2024-01-30T05:06:13;97066.03;;;-0.86;99.66
15477;BME280;7840;42.702;23.296;2024-01-30T05:14:03;97065.53;;;-0.80;100.00
15477;BME280;7840;42.702;23.296;2024-01-30T05:16:30;97061.34;;;-0.92;100.00
15477;BME280;7840;42.702;23.296;2024-01-30T05:19:24;97066.03;;;-0.86;100.00
15477;BME280;7840;42.702;23.296;2024-01-30T05:21:52;97066.19;;;-0.88;100.00
15477;BME280;7840;42.702;23.296;2024-01-30T05:24:20;97067.25;;;-0.90;100.00
15477;BME280;7840;42.702;23.296;2024-01-30T05:26:48;97072.94;;;-0.96;100.00
15477;BME280;7840;42.702;23.296;2024-01-30T05:29:32;97066.31;;;-0.89;100.00
15477;BME280;7840;42.702;23.296;2024-01-30T05:32:00;97064.28;;;-0.86;100.00
15477;BME280;7840;42.702;23.296;2024-01-30T05:34:29;97066.72;;;-1.05;100.00
15477;BME280;7840;42.702;23.296;2024-01-30T05:36:56;97059.44;;;-0.90;100.00
15477;BME280;7840;42.702;23.296;2024-01-30T05:39:24;97065.59;;;-0.91;100.00
15477;BME280;7840;42.702;23.296;2024-01-30T05:41:52;97067.13;;;-1.09;100.00
15477;BME280;7840;42.702;23.296;2024-01-30T05:44:23;97067.69;;;-1.06;100.00
15477;BME280;7840;42.702;23.296;2024-01-30T05:46:52;97063.78;;;-1.12;100.00
15477;BME280;7840;42.702;23.296;2024-01-30T05:49:42;97065.91;;;-1.05;100.00
15477;BME280;7840;42.702;23.296;2024-01-30T05:52:09;97071.47;;;-1.10;100.00
15477;BME280;7840;42.702;23.296;2024-01-30T05:54:37;97064.94;;;-1.04;99.05
15477;BME280;7840;42.702;23.296;2024-01-30T05:57:05;97058.56;;;-1.00;98.29
15477;BME280;7840;42.702;23.296;2024-01-30T05:59:33;97058.38;;;-1.08;94.99
15477;BME280;7840;42.702;23.296;2024-01-30T06:02:13;97065.22;;;-1.07;92.58
15477;BME280;7840;42.702;23.296;2024-01-30T06:07:31;97069.31;;;-1.05;90.92
15477;BME280;7840;42.702;23.296;2024-01-30T06:09:59;97068.75;;;-1.08;90.53
15477;BME280;7840;42.702;23.296;2024-01-30T06:15:06;97070.97;;;-1.04;90.03
15477;BME280;7840;42.702;23.296;2024-01-30T06:17:34;97084.56;;;-1.00;89.45
15477;BME280;7840;42.702;23.296;2024-01-30T06:20:02;97084.75;;;-0.92;88.85
15477;BME280;7840;42.702;23.296;2024-01-30T06:25:08;97075.94;;;-0.80;88.40
15477;BME280;7840;42.702;23.296;2024-01-30T06:27:36;97083.81;;;-0.70;88.96
15477;BME280;7840;42.702;23.296;2024-01-30T06:30:05;97072.06;;;-0.65;87.69
15477;BME280;7840;42.702;23.296;2024-01-30T06:32:32;97083.63;;;-0.58;88.00
15477;BME280;7840;42.702;23.296;2024-01-30T06:35:00;97081.19;;;-0.49;87.17
15477;BME280;7840;42.702;23.296;2024-01-30T06:37:28;97075.03;;;-0.48;86.44
15477;BME280;7840;42.702;23.296;2024-01-30T06:39:56;97081.38;;;-0.41;85.33
15477;BME280;7840;42.702;23.296;2024-01-30T06:42:25;97085.16;;;-0.34;85.61
15477;BME280;7840;42.702;23.296;2024-01-30T06:45:16;97072.81;;;-0.32;85.05
15477;BME280;7840;42.702;23.296;2024-01-30T07:00:44;97075.22;;;0.21;81.07
15477;BME280;7840;42.702;23.296;2024-01-30T07:03:11;97085.91;;;0.18;79.76
15477;BME280;7840;42.702;23.296;2024-01-30T07:08:09;97088.13;;;0.32;79.47
15477;BME280;7840;42.702;23.296;2024-01-30T07:10:36;97089.25;;;0.30;79.98
15477;BME280;7840;42.702;23.296;2024-01-30T07:13:04;97090.50;;;0.54;77.57
15477;BME280;7840;42.702;23.296;2024-01-30T07:15:32;97082.97;;;0.51;77.81
15477;BME280;7840;42.702;23.296;2024-01-30T07:18:02;97087.69;;;0.77;77.58
15477;BME280;7840;42.702;23.296;2024-01-30T07:20:36;97087.13;;;0.73;74.97
15477;BME280;7840;42.702;23.296;2024-01-30T07:25:52;97088.78;;;1.23;72.51
15477;BME280;7840;42.702;23.296;2024-01-30T07:28:19;97081.66;;;1.25;71.14
15477;BME280;7840;42.702;23.296;2024-01-30T07:30:47;97086.59;;;1.28;68.53
15477;BME280;7840;42.702;23.296;2024-01-30T07:33:18;97085.22;;;1.33;68.70
15477;BME280;7840;42.702;23.296;2024-01-30T07:35:46;97077.78;;;1.29;67.60
15477;BME280;7840;42.702;23.296;2024-01-30T07:38:13;97079.44;;;1.30;68.43
15477;BME280;7840;42.702;23.296;2024-01-30T07:40:41;97085.34;;;1.42;68.45
15477;BME280;7840;42.702;23.296;2024-01-30T07:43:08;97074.69;;;1.62;66.53
15477;BME280;7840;42.702;23.296;2024-01-30T07:45:36;97077.56;;;1.79;66.71
15477;BME280;7840;42.702;23.296;2024-01-30T07:48:06;97078.91;;;1.92;66.19
15477;BME280;7840;42.702;23.296;2024-01-30T07:50:35;97080.06;;;2.08;63.47
15477;BME280;7840;42.702;23.296;2024-01-30T07:53:03;97071.19;;;2.18;63.37
15477;BME280;7840;42.702;23.296;2024-01-30T07:55:31;97070.44;;;2.08;62.87
15477;BME280;7840;42.702;23.296;2024-01-30T07:57:59;97073.31;;;2.33;62.54
15477;BME280;7840;42.702;23.296;2024-01-30T08:00:27;97071.50;;;2.43;62.06
15477;BME280;7840;42.702;23.296;2024-01-30T08:02:55;97068.97;;;2.24;61.88
15477;BME280;7840;42.702;23.296;2024-01-30T08:05:23;97072.00;;;2.29;61.73
15477;BME280;7840;42.702;23.296;2024-01-30T08:07:52;97064.81;;;2.31;61.43
15477;BME280;7840;42.702;23.296;2024-01-30T08:10:20;97073.31;;;2.33;61.06
15477;BME280;7840;42.702;23.296;2024-01-30T08:12:48;97070.59;;;2.52;60.34
15477;BME280;7840;42.702;23.296;2024-01-30T08:15:16;97069.34;;;2.56;60.31
15477;BME280;7840;42.702;23.296;2024-01-30T08:17:44;97070.19;;;2.57;60.24
15477;BME280;7840;42.702;23.296;2024-01-30T08:20:12;97068.72;;;2.27;60.07
15477;BME280;7840;42.702;23.296;2024-01-30T08:22:40;97066.91;;;2.55;60.51
15477;BME280;7840;42.702;23.296;2024-01-30T08:25:09;97067.59;;;2.74;59.07
15477;BME280;7840;42.702;23.296;2024-01-30T08:27:38;97075.66;;;2.63;58.44
15477;BME280;7840;42.702;23.296;2024-01-30T08:30:07;97072.41;;;2.52;59.67
15477;BME280;7840;42.702;23.296;2024-01-30T08:32:34;97074.00;;;2.62;59.44
15477;BME280;7840;42.702;23.296;2024-01-30T08:35:02;97075.44;;;2.47;59.26
15477;BME280;7840;42.702;23.296;2024-01-30T08:37:31;97072.84;;;2.74;60.01
15477;BME280;7840;42.702;23.296;2024-01-30T08:39:58;97077.16;;;2.84;59.30
15477;BME280;7840;42.702;23.296;2024-01-30T08:42:27;97081.22;;;2.96;59.59
15477;BME280;7840;42.702;23.296;2024-01-30T08:44:55;97073.97;;;2.90;59.75
15477;BME280;7840;42.702;23.296;2024-01-30T08:47:22;97076.72;;;3.06;60.23
15477;BME280;7840;42.702;23.296;2024-01-30T08:49:51;97078.56;;;3.32;59.14
15477;BME280;7840;42.702;23.296;2024-01-30T08:52:19;97082.66;;;3.52;58.83
15477;BME280;7840;42.702;23.296;2024-01-30T08:54:46;97082.09;;;3.66;58.25
15477;BME280;7840;42.702;23.296;2024-01-30T08:57:14;97077.00;;;3.39;59.49
15477;BME280;7840;42.702;23.296;2024-01-30T08:59:43;97081.25;;;3.40;59.57
15477;BME280;7840;42.702;23.296;2024-01-30T09:02:12;97089.59;;;3.17;59.71
15477;BME280;7840;42.702;23.296;2024-01-30T09:04:44;97080.09;;;2.98;61.85
15477;BME280;7840;42.702;23.296;2024-01-30T09:07:12;97096.47;;;2.83;62.40
15477;BME280;7840;42.702;23.296;2024-01-30T09:09:40;97096.00;;;2.69;63.79
15477;BME280;7840;42.702;23.296;2024-01-30T09:12:09;97093.72;;;2.29;65.75
15477;BME280;7840;42.702;23.296;2024-01-30T09:14:38;97098.28;;;2.27;67.15
15477;BME280;7840;42.702;23.296;2024-01-30T09:17:07;97091.63;;;2.05;68.55
15477;BME280;7840;42.702;23.296;2024-01-30T09:19:35;97093.84;;;2.00;69.34
15477;BME280;7840;42.702;23.296;2024-01-30T09:22:07;97087.19;;;2.15;69.44
15477;BME280;7840;42.702;23.296;2024-01-30T09:24:34;97090.69;;;2.06;68.88
15477;BME280;7840;42.702;23.296;2024-01-30T09:27:02;97073.19;;;2.62;67.67
15477;BME280;7840;42.702;23.296;2024-01-30T09:29:29;97077.63;;;2.97;65.54
15477;BME280;7840;42.702;23.296;2024-01-30T09:31:57;97076.25;;;3.28;63.82
15477;BME280;7840;42.702;23.296;2024-01-30T09:34:26;97079.06;;;3.53;61.12
15477;BME280;7840;42.702;23.296;2024-01-30T09:36:54;97068.88;;;3.50;60.12
15477;BME280;7840;42.702;23.296;2024-01-30T09:39:21;97069.09;;;3.82;59.70
15477;BME280;7840;42.702;23.296;2024-01-30T09:41:52;97067.53;;;3.98;60.30
15477;BME280;7840;42.702;23.296;2024-01-30T09:44:23;97059.66;;;3.98;59.49
15477;BME280;7840;42.702;23.296;2024-01-30T09:46:53;97062.97;;;4.00;57.74
15477;BME280;7840;42.702;23.296;2024-01-30T09:51:58;97064.97;;;3.54;59.68
15477;BME280;7840;42.702;23.296;2024-01-30T09:54:25;97053.31;;;3.48;58.93
15477;BME280;7840;42.702;23.296;2024-01-30T09:56:53;97057.50;;;3.59;58.38
15477;BME280;7840;42.702;23.296;2024-01-30T10:04:38;97059.59;;;3.81;58.18
15477;BME280;7840;42.702;23.296;2024-01-30T10:07:08;97051.59;;;4.25;56.74
15477;BME280;7840;42.702;23.296;2024-01-30T10:09:37;97052.13;;;4.29;55.77
15477;BME280;7840;42.702;23.296;2024-01-30T10:12:06;97046.50;;;4.24;55.28
15477;BME280;7840;42.702;23.296;2024-01-30T10:14:37;97046.31;;;4.17;55.45
15477;BME280;7840;42.702;23.296;2024-01-30T10:17:05;97049.88;;;4.00;56.13
15477;BME280;7840;42.702;23.296;2024-01-30T10:19:33;97052.25;;;3.85;56.25
15477;BME280;7840;42.702;23.296;2024-01-30T10:22:00;97051.84;;;3.72;58.07
15477;BME280;7840;42.702;23.296;2024-01-30T10:24:30;97048.84;;;3.93;57.39
15477;BME280;7840;42.702;23.296;2024-01-30T10:26:58;97044.06;;;4.22;56.16
15477;BME280;7840;42.702;23.296;2024-01-30T10:29:26;97043.03;;;4.15;54.22
15477;BME280;7840;42.702;23.296;2024-01-30T10:32:00;97044.53;;;3.32;55.58
15477;BME280;7840;42.702;23.296;2024-01-30T10:34:28;97043.06;;;2.93;58.81
15477;BME280;7840;42.702;23.296;2024-01-30T10:37:01;97043.97;;;3.46;59.28
15477;BME280;7840;42.702;23.296;2024-01-30T10:39:32;97028.47;;;4.13;56.32
15477;BME280;7840;42.702;23.296;2024-01-30T10:42:05;97034.72;;;4.20;55.48
15477;BME280;7840;42.702;23.296;2024-01-30T10:44:39;97037.56;;;4.43;55.13
15477;BME280;7840;42.702;23.296;2024-01-30T10:47:18;97044.03;;;4.64;53.97
15477;BME280;7840;42.702;23.296;2024-01-30T10:49:49;97038.31;;;4.77;53.08
15477;BME280;7840;42.702;23.296;2024-01-30T10:52:18;97027.50;;;5.29;52.87
15477;BME280;7840;42.702;23.296;2024-01-30T10:57:23;97016.63;;;5.48;50.92
15477;BME280;7840;42.702;23.296;2024-01-30T10:59:52;97018.97;;;5.11;51.60
15477;BME280;7840;42.702;23.296;2024-01-30T11:02:21;97016.50;;;5.26;51.83
15477;BME280;7840;42.702;23.296;2024-01-30T11:04:54;97007.09;;;4.58;52.25
15477;BME280;7840;42.702;23.296;2024-01-30T11:07:25;97009.34;;;4.36;54.59
15477;BME280;7840;42.702;23.296;2024-01-30T11:09:59;97012.59;;;4.30;54.23
15477;BME280;7840;42.702;23.296;2024-01-30T11:12:31;97005.16;;;4.76;54.80
15477;BME280;7840;42.702;23.296;2024-01-30T11:15:05;97002.06;;;4.81;53.07
15477;BME280;7840;42.702;23.296;2024-01-30T11:17:49;97006.47;;;4.80;52.64
15477;BME280;7840;42.702;23.296;2024-01-30T11:20:21;96997.94;;;5.19;52.59
15477;BME280;7840;42.702;23.296;2024-01-30T11:22:51;96993.97;;;5.47;52.00
15477;BME280;7840;42.702;23.296;2024-01-30T11:25:21;96992.88;;;5.89;50.56
15477;BME280;7840;42.702;23.296;2024-01-30T11:27:52;97006.44;;;5.54;50.91
15477;BME280;7840;42.702;23.296;2024-01-30T11:30:24;96993.66;;;5.51;51.03
15477;BME280;7840;42.702;23.296;2024-01-30T11:35:27;96997.25;;;5.41;51.35
15477;BME280;7840;42.702;23.296;2024-01-30T11:37:58;96995.47;;;5.26;51.91
15477;BME280;7840;42.702;23.296;2024-01-30T11:40:28;96995.16;;;5.12;52.46
15477;BME280;7840;42.702;23.296;2024-01-30T11:42:59;96994.31;;;5.28;51.79
15477;BME280;7840;42.702;23.296;2024-01-30T11:45:27;96991.72;;;5.36;52.26
15477;BME280;7840;42.702;23.296;2024-01-30T11:47:55;96991.66;;;5.53;51.48
15477;BME280;7840;42.702;23.296;2024-01-30T11:52:55;96988.13;;;4.88;52.82
15477;BME280;7840;42.702;23.296;2024-01-30T11:55:23;96992.72;;;5.03;52.88
15477;BME280;7840;42.702;23.296;2024-01-30T11:57:50;96992.84;;;5.26;52.19
15477;BME280;7840;42.702;23.296;2024-01-30T12:00:20;96982.88;;;4.97;52.69
15477;BME280;7840;42.702;23.296;2024-01-30T12:02:50;96980.88;;;4.90;53.64
15477;BME280;7840;42.702;23.296;2024-01-30T12:05:22;96979.59;;;4.94;52.75
15477;BME280;7840;42.702;23.296;2024-01-30T12:07:49;96967.91;;;5.05;53.24
15477;BME280;7840;42.702;23.296;2024-01-30T12:10:18;96964.81;;;5.10;53.80
15477;BME280;7840;42.702;23.296;2024-01-30T12:12:47;96956.59;;;4.97;53.19
15477;BME280;7840;42.702;23.296;2024-01-30T12:15:16;96954.78;;;5.30;52.19
15477;BME280;7840;42.702;23.296;2024-01-30T12:17:45;96947.00;;;5.44;51.84
15477;BME280;7840;42.702;23.296;2024-01-30T12:20:14;96943.38;;;5.54;51.43
15477;BME280;7840;42.702;23.296;2024-01-30T12:22:43;96947.53;;;5.87;50.40
15477;BME280;7840;42.702;23.296;2024-01-30T12:25:11;96940.38;;;6.12;49.61
15477;BME280;7840;42.702;23.296;2024-01-30T12:27:41;96946.78;;;6.10;50.14
15477;BME280;7840;42.702;23.296;2024-01-30T12:30:11;96930.81;;;6.42;48.91
15477;BME280;7840;42.702;23.296;2024-01-30T12:32:41;96939.91;;;6.09;49.16
15477;BME280;7840;42.702;23.296;2024-01-30T12:35:11;96938.88;;;6.18;49.29
15477;BME280;7840;42.702;23.296;2024-01-30T12:37:39;96945.28;;;6.15;48.85
15477;BME280;7840;42.702;23.296;2024-01-30T12:40:08;96926.91;;;6.38;48.72
15477;BME280;7840;42.702;23.296;2024-01-30T12:42:36;96930.56;;;6.60;47.79
15477;BME280;7840;42.702;23.296;2024-01-30T12:45:05;96925.81;;;6.55;47.89
15477;BME280;7840;42.702;23.296;2024-01-30T12:47:33;96919.34;;;6.58;48.22
15477;BME280;7840;42.702;23.296;2024-01-30T12:50:00;96930.25;;;6.78;47.44
15477;BME280;7840;42.702;23.296;2024-01-30T12:52:29;96924.84;;;6.94;47.47
15477;BME280;7840;42.702;23.296;2024-01-30T12:54:57;96922.88;;;6.50;47.63
15477;BME280;7840;42.702;23.296;2024-01-30T12:57:25;96917.38;;;6.60;47.42
15477;BME280;7840;42.702;23.296;2024-01-30T12:59:53;96918.13;;;6.69;47.02
15477;BME280;7840;42.702;23.296;2024-01-30T13:02:20;96902.69;;;7.03;47.09
15477;BME280;7840;42.702;23.296;2024-01-30T13:04:50;96905.97;;;7.05;46.77
15477;BME280;7840;42.702;23.296;2024-01-30T13:07:17;96899.53;;;7.08;46.67
15477;BME280;7840;42.702;23.296;2024-01-30T13:09:48;96900.34;;;7.08;46.48
15477;BME280;7840;42.702;23.296;2024-01-30T13:12:18;96904.25;;;7.27;46.87
15477;BME280;7840;42.702;23.296;2024-01-30T13:14:46;96901.72;;;7.19;46.48
15477;BME280;7840;42.702;23.296;2024-01-30T13:17:13;96901.00;;;7.25;45.83
15477;BME280;7840;42.702;23.296;2024-01-30T13:19:41;96898.72;;;7.07;45.88
15477;BME280;7840;42.702;23.296;2024-01-30T13:22:08;96897.44;;;7.03;46.21
15477;BME280;7840;42.702;23.296;2024-01-30T13:24:36;96891.88;;;6.98;46.16
15477;BME280;7840;42.702;23.296;2024-01-30T13:27:05;96896.72;;;7.09;46.38
15477;BME280;7840;42.702;23.296;2024-01-30T13:29:33;96898.19;;;6.74;46.46
15477;BME280;7840;42.702;23.296;2024-01-30T13:32:01;96897.72;;;6.71;47.19
15477;BME280;7840;42.702;23.296;2024-01-30T13:34:31;96891.53;;;7.01;46.55
15477;BME280;7840;42.702;23.296;2024-01-30T13:36:58;96891.84;;;7.36;46.47
15477;BME280;7840;42.702;23.296;2024-01-30T13:39:26;96897.44;;;7.18;45.90
15477;BME280;7840;42.702;23.296;2024-01-30T13:41:55;96893.84;;;7.63;45.28
15477;BME280;7840;42.702;23.296;2024-01-30T13:44:24;96889.56;;;8.13;44.49
15477;BME280;7840;42.702;23.296;2024-01-30T13:46:51;96890.75;;;8.47;43.36
15477;BME280;7840;42.702;23.296;2024-01-30T13:49:21;96900.75;;;8.15;43.71
15477;BME280;7840;42.702;23.296;2024-01-30T13:51:49;96896.31;;;8.01;44.14
15477;BME280;7840;42.702;23.296;2024-01-30T13:54:16;96894.38;;;8.25;44.65
15477;BME280;7840;42.702;23.296;2024-01-30T13:56:44;96901.59;;;8.73;43.99
15477;BME280;7840;42.702;23.296;2024-01-30T13:59:12;96907.09;;;9.00;42.86
15477;BME280;7840;42.702;23.296;2024-01-30T14:01:41;96901.13;;;8.91;42.54
15477;BME280;7840;42.702;23.296;2024-01-30T14:04:08;96899.28;;;8.92;43.23
15477;BME280;7840;42.702;23.296;2024-01-30T14:06:37;96900.94;;;8.93;42.77
15477;BME280;7840;42.702;23.296;2024-01-30T14:09:04;96894.97;;;8.84;43.46
15477;BME280;7840;42.702;23.296;2024-01-30T14:11:36;96897.63;;;9.40;41.89
15477;BME280;7840;42.702;23.296;2024-01-30T14:14:04;96890.19;;;9.22;41.45
15477;BME280;7840;42.702;23.296;2024-01-30T14:16:31;96894.50;;;9.02;42.28
15477;BME280;7840;42.702;23.296;2024-01-30T14:19:00;96888.16;;;9.24;41.19
15477;BME280;7840;42.702;23.296;2024-01-30T14:21:28;96884.44;;;9.81;41.49
15477;BME280;7840;42.702;23.296;2024-01-30T14:23:55;96883.31;;;10.10;40.27
15477;BME280;7840;42.702;23.296;2024-01-30T14:26:23;96887.56;;;10.05;39.93
15477;BME280;7840;42.702;23.296;2024-01-30T14:28:50;96885.84;;;10.32;39.83
15477;BME280;7840;42.702;23.296;2024-01-30T14:31:18;96886.69;;;10.46;39.80
15477;BME280;7840;42.702;23.296;2024-01-30T14:33:46;96893.88;;;10.65;39.49
15477;BME280;7840;42.702;23.296;2024-01-30T14:36:17;96889.28;;;9.78;40.20
15477;BME280;7840;42.702;23.296;2024-01-30T14:38:46;96890.88;;;10.20;40.02
15477;BME280;7840;42.702;23.296;2024-01-30T14:41:14;96884.81;;;10.26;39.66
15477;BME280;7840;42.702;23.296;2024-01-30T14:43:42;96886.91;;;9.90;40.52
15477;BME280;7840;42.702;23.296;2024-01-30T14:46:09;96896.63;;;9.13;40.77
15477;BME280;7840;42.702;23.296;2024-01-30T14:48:37;96900.94;;;8.93;41.71
15477;BME280;7840;42.702;23.296;2024-01-30T14:51:05;96890.88;;;9.38;41.03
15477;BME280;7840;42.702;23.296;2024-01-30T14:53:34;96897.75;;;9.04;41.43
15477;BME280;7840;42.702;23.296;2024-01-30T14:56:02;96903.28;;;7.58;44.10
15477;BME280;7840;42.702;23.296;2024-01-30T14:58:30;96905.38;;;6.57;45.99
15477;BME280;7840;42.702;23.296;2024-01-30T15:00:57;96909.03;;;6.02;48.13
15477;BME280;7840;42.702;23.296;2024-01-30T15:03:26;96914.59;;;4.88;51.31
15477;BME280;7840;42.702;23.296;2024-01-30T15:05:54;96912.28;;;4.53;53.55
15477;BME280;7840;42.702;23.296;2024-01-30T15:08:22;96913.88;;;4.05;55.44
15477;BME280;7840;42.702;23.296;2024-01-30T15:10:51;96912.19;;;3.19;58.97
15477;BME280;7840;42.702;23.296;2024-01-30T15:13:20;96914.59;;;3.13;60.83
15477;BME280;7840;42.702;23.296;2024-01-30T15:15:47;96907.22;;;2.82;62.32
15477;BME280;7840;42.702;23.296;2024-01-30T15:18:15;96912.03;;;2.69;63.64